Time;durP1;ratioP1;P1;durP2;ratioP2;P2;SDS_P1;SDS_P2;PMS_P1;PMS_P2;Temp;Humidity;BMP_temperature;BMP_pressure;BME280_temperature;BME280_humidity;BME280_pressure;Samples;Min_cycle;Max_cycle;Signal;HPM_P1;HPM_P2
2023/12/07 00:00:40;;;;;;;;;;;;;;;-9.52;76.31;101606.25;5018482;28;20197;-74
2023/12/07 00:03:09;;;;;;;;;;;;;;;-9.51;76.43;101597.41;5021334;28;19929;-75
2023/12/07 00:05:36;;;;;;;;;;;;;;;-9.54;76.65;101593.13;5015382;28;19929;-74
2023/12/07 00:08:02;;;;;;;;;;;;;;;-9.43;76.39;101597.72;5017970;28;19964;-74
2023/12/07 00:10:28;;;;;;;;;;;;;;;-9.41;76.24;101599.34;5017437;28;19933;-73
2023/12/07 00:12:54;;;;;;;;;;;;;;;-9.44;76.28;101604.84;5018555;28;19929;-74
2023/12/07 00:15:20;;;;;;;;;;;;;;;-9.47;76.39;101604.19;5019524;28;20409;-74
2023/12/07 00:17:46;;;;;;;;;;;;;;;-9.44;76.49;101598.69;5030949;28;19936;-74
2023/12/07 00:20:12;;;;;;;;;;;;;;;-9.44;76.05;101599.53;5020814;28;19944;-75
2023/12/07 00:22:40;;;;;;;;;;;;;;;-9.45;76.14;101604.94;5020147;28;19984;-74
2023/12/07 00:25:07;;;;;;;;;;;;;;;-9.45;76.20;101602.28;5019674;28;19929;-74
2023/12/07 00:27:37;;;;;;;;;;;;;;;-9.40;75.79;101600.19;5014314;28;20383;-74
2023/12/07 00:30:03;;;;;;;;;;;;;;;-9.39;76.02;101607.16;5023642;28;19936;-74
2023/12/07 00:32:29;;;;;;;;;;;;;;;-9.38;75.87;101606.22;5022919;28;20277;-74
2023/12/07 00:34:55;;;;;;;;;;;;;;;-9.38;75.80;101611.53;5022043;28;19929;-74
2023/12/07 00:37:21;;;;;;;;;;;;;;;-9.47;75.75;101607.66;5023130;28;20324;-74
2023/12/07 00:39:48;;;;;;;;;;;;;;;-9.55;75.96;101613.47;5020779;28;20410;-75
2023/12/07 00:42:14;;;;;;;;;;;;;;;-9.62;76.15;101612.16;5020590;28;19936;-75
2023/12/07 00:44:40;;;;;;;;;;;;;;;-9.64;76.44;101605.25;5026808;28;19929;-75
2023/12/07 00:47:06;;;;;;;;;;;;;;;-9.62;76.53;101612.16;5020706;28;19983;-74
2023/12/07 00:49:32;;;;;;;;;;;;;;;-9.61;76.35;101619.16;5022228;28;19936;-73
2023/12/07 00:51:58;;;;;;;;;;;;;;;-9.68;76.32;101615.19;5024474;28;20019;-73
2023/12/07 00:54:24;;;;;;;;;;;;;;;-9.74;76.47;101611.16;5023091;28;19965;-73
2023/12/07 00:56:51;;;;;;;;;;;;;;;-9.81;76.62;101617.78;5023536;28;19972;-74
2023/12/07 00:59:17;;;;;;;;;;;;;;;-9.82;76.49;101616.09;5038547;28;19979;-74
2023/12/07 01:01:42;;;;;;;;;;;;;;;-9.82;76.91;101618.72;5024794;28;19933;-74
2023/12/07 01:04:08;;;;;;;;;;;;;;;-9.84;76.67;101615.34;5005950;28;19929;-73
2023/12/07 01:06:34;;;;;;;;;;;;;;;-9.82;76.63;101613.44;5019238;28;19935;-73
2023/12/07 01:09:00;;;;;;;;;;;;;;;-9.87;76.82;101620.81;5013096;28;20400;-72
2023/12/07 01:11:26;;;;;;;;;;;;;;;-9.91;76.56;101624.59;5018087;28;19929;-72
2023/12/07 01:13:54;;;;;;;;;;;;;;;-9.97;76.49;101624.03;5027379;28;20019;-73
2023/12/07 01:16:19;;;;;;;;;;;;;;;-10.01;76.60;101626.97;5023327;28;19939;-72
2023/12/07 01:18:45;;;;;;;;;;;;;;;-10.01;76.89;101629.63;5022355;28;19955;-72
2023/12/07 01:21:12;;;;;;;;;;;;;;;-10.05;76.53;101634.28;5023473;28;19936;-72
2023/12/07 01:23:38;;;;;;;;;;;;;;;-10.11;76.50;101635.50;5019349;28;19960;-74
2023/12/07 01:26:03;;;;;;;;;;;;;;;-10.11;76.44;101638.13;5004538;28;19980;-74
2023/12/07 01:28:29;;;;;;;;;;;;;;;-10.13;76.28;101634.75;5021947;28;19929;-74
2023/12/07 01:30:57;;;;;;;;;;;;;;;-10.15;76.26;101633.97;5024395;28;20395;-74
2023/12/07 01:33:23;;;;;;;;;;;;;;;-10.17;76.34;101642.97;5018774;28;20051;-74
2023/12/07 01:35:48;;;;;;;;;;;;;;;-10.20;76.20;101646.63;5022185;28;20020;-74
2023/12/07 01:38:14;;;;;;;;;;;;;;;-10.27;76.44;101632.09;5025055;28;19977;-74
2023/12/07 01:40:40;;;;;;;;;;;;;;;-10.21;76.62;101642.28;5017619;28;19972;-74
2023/12/07 01:43:06;;;;;;;;;;;;;;;-10.12;76.78;101641.75;5013874;28;19941;-74
2023/12/07 01:45:32;;;;;;;;;;;;;;;-10.07;76.05;101645.88;5019572;28;19952;-74
2023/12/07 01:47:59;;;;;;;;;;;;;;;-10.11;76.32;101647.88;5022206;28;19952;-74
2023/12/07 01:50:26;;;;;;;;;;;;;;;-10.09;76.35;101650.44;5022002;28;19933;-74
2023/12/07 01:52:54;;;;;;;;;;;;;;;-10.08;76.01;101657.41;5023005;28;19929;-73
2023/12/07 01:55:21;;;;;;;;;;;;;;;-10.09;76.05;101659.19;5020033;28;20342;-73
2023/12/07 01:57:49;;;;;;;;;;;;;;;-10.05;76.13;101663.38;5023508;28;19929;-74
2023/12/07 02:00:15;;;;;;;;;;;;;;;-10.03;76.06;101661.50;5017964;28;19937;-73
2023/12/07 02:02:41;;;;;;;;;;;;;;;-10.04;76.12;101664.22;5002254;28;20034;-74
2023/12/07 02:05:09;;;;;;;;;;;;;;;-10.12;75.66;101669.97;5035589;28;19929;-74
2023/12/07 02:07:35;;;;;;;;;;;;;;;-10.15;75.77;101667.53;5023704;28;19936;-74
2023/12/07 02:10:01;;;;;;;;;;;;;;;-10.13;75.47;101666.50;5022200;28;20027;-74
2023/12/07 02:12:29;;;;;;;;;;;;;;;-10.12;75.80;101667.34;5024359;28;19936;-74
2023/12/07 02:14:56;;;;;;;;;;;;;;;-10.10;75.16;101670.75;5016757;28;19929;-75
2023/12/07 02:17:26;;;;;;;;;;;;;;;-10.12;75.28;101670.84;5002435;28;19929;-74
2023/12/07 02:19:57;;;;;;;;;;;;;;;-10.17;75.06;101675.56;5020664;28;20407;-74
2023/12/07 02:22:27;;;;;;;;;;;;;;;-10.20;75.22;101674.91;5003283;28;19929;-72
2023/12/07 02:25:03;;;;;;;;;;;;;;;-10.26;75.13;101678.78;5022026;28;19937;-72
2023/12/07 02:27:37;;;;;;;;;;;;;;;-10.28;75.03;101692.06;5020716;28;20328;-71
2023/12/07 02:30:04;;;;;;;;;;;;;;;-10.30;75.42;101687.81;5021598;28;19929;-72
2023/12/07 02:32:30;;;;;;;;;;;;;;;-10.25;75.02;101688.41;5019658;28;19929;-72
2023/12/07 02:34:56;;;;;;;;;;;;;;;-10.31;75.16;101688.75;5003193;28;20015;-72
2023/12/07 02:37:25;;;;;;;;;;;;;;;-10.37;75.28;101699.72;5001141;28;19988;-72
2023/12/07 02:39:51;;;;;;;;;;;;;;;-10.39;75.41;101689.22;5018512;28;20577;-72
2023/12/07 02:42:18;;;;;;;;;;;;;;;-10.37;75.66;101699.72;5019805;28;19932;-72
2023/12/07 02:44:45;;;;;;;;;;;;;;;-10.35;75.57;101687.25;5004979;28;19929;-72
2023/12/07 02:47:11;;;;;;;;;;;;;;;-10.42;75.43;101686.78;5021420;28;19933;-72
2023/12/07 02:49:37;;;;;;;;;;;;;;;-10.51;75.83;101688.19;5018950;28;19929;-73
2023/12/07 02:52:03;;;;;;;;;;;;;;;-10.55;75.66;101686.69;5001777;28;19935;-73
2023/12/07 02:54:29;;;;;;;;;;;;;;;-10.57;75.82;101684.13;5021582;28;19968;-73
2023/12/07 02:56:55;;;;;;;;;;;;;;;-10.56;75.98;101688.47;5019553;28;19929;-71
2023/12/07 02:59:21;;;;;;;;;;;;;;;-10.56;75.63;101691.09;5019756;28;19933;-72
2023/12/07 03:01:50;;;;;;;;;;;;;;;-10.60;75.53;101694.88;5023237;28;20296;-74
2023/12/07 03:04:16;;;;;;;;;;;;;;;-10.65;75.54;101698.72;5024287;28;19961;-74
2023/12/07 03:06:42;;;;;;;;;;;;;;;-10.73;75.82;101693.88;5022230;28;19964;-74
2023/12/07 03:09:07;;;;;;;;;;;;;;;-10.78;76.05;101701.25;5021574;28;19933;-74
2023/12/07 03:11:33;;;;;;;;;;;;;;;-10.78;75.93;101703.88;5021697;28;19933;-74
2023/12/07 03:13:59;;;;;;;;;;;;;;;-10.74;76.12;101708.91;5019699;28;20035;-74
2023/12/07 03:16:25;;;;;;;;;;;;;;;-10.72;76.01;101717.59;5022074;28;19936;-74
2023/12/07 03:18:53;;;;;;;;;;;;;;;-10.85;75.44;101688.41;5020361;28;19936;-74
2023/12/07 03:21:18;;;;;;;;;;;;;;;-10.63;75.74;101726.78;5015816;28;20128;-74
2023/12/07 03:23:45;;;;;;;;;;;;;;;-10.63;74.99;101718.88;5021146;28;20056;-74
2023/12/07 03:26:11;;;;;;;;;;;;;;;-10.62;75.38;101723.22;5002637;28;19961;-74
2023/12/07 03:28:37;;;;;;;;;;;;;;;-10.58;75.01;101737.13;5020896;28;19933;-72
2023/12/07 03:31:03;;;;;;;;;;;;;;;-10.54;74.99;101736.81;5016698;28;20375;-71
2023/12/07 03:33:29;;;;;;;;;;;;;;;-10.49;74.73;101733.06;5020088;28;19929;-72
2023/12/07 03:35:56;;;;;;;;;;;;;;;-10.52;74.84;101728.81;5000687;28;19968;-73
2023/12/07 03:38:22;;;;;;;;;;;;;;;-10.45;74.45;101738.09;5002448;28;19929;-74
2023/12/07 03:40:49;;;;;;;;;;;;;;;-10.43;74.66;101738.88;5019728;28;19984;-74
2023/12/07 03:43:16;;;;;;;;;;;;;;;-10.44;74.47;101741.59;5015860;28;20407;-74
2023/12/07 03:45:42;;;;;;;;;;;;;;;-10.48;74.32;101745.38;5021202;28;19929;-72
2023/12/07 03:48:08;;;;;;;;;;;;;;;-10.48;74.35;101748.00;4999625;28;19936;-73
2023/12/07 03:50:34;;;;;;;;;;;;;;;-10.55;74.32;101734.28;5012115;28;19934;-73
2023/12/07 03:53:01;;;;;;;;;;;;;;;-10.43;74.57;101745.94;5037561;28;20516;-74
2023/12/07 03:55:27;;;;;;;;;;;;;;;-10.41;74.25;101750.22;5020547;28;20293;-73
2023/12/07 03:57:53;;;;;;;;;;;;;;;-10.41;74.06;101744.91;5016608;28;20289;-71
2023/12/07 04:00:19;;;;;;;;;;;;;;;-10.47;74.33;101742.59;5015295;28;19960;-73
2023/12/07 04:02:45;;;;;;;;;;;;;;;-10.49;73.97;101748.94;5017312;28;19929;-73
2023/12/07 04:05:12;;;;;;;;;;;;;;;-10.51;74.19;101754.31;5019435;28;19933;-73
2023/12/07 04:07:38;;;;;;;;;;;;;;;-10.55;74.44;101758.09;5006600;28;20459;-74
2023/12/07 04:10:06;;;;;;;;;;;;;;;-10.55;74.40;101753.63;5022214;28;19940;-72
2023/12/07 04:12:31;;;;;;;;;;;;;;;-10.51;74.67;101759.59;5022700;28;20575;-71
2023/12/07 04:14:57;;;;;;;;;;;;;;;-10.55;74.61;101756.28;5023766;28;19940;-71
2023/12/07 04:17:23;;;;;;;;;;;;;;;-10.61;74.84;101761.09;5001868;28;20035;-73
2023/12/07 04:19:49;;;;;;;;;;;;;;;-10.67;74.54;101767.59;5018658;28;19929;-73
2023/12/07 04:22:15;;;;;;;;;;;;;;;-10.80;74.50;101763.94;5021676;28;19929;-74
2023/12/07 04:24:41;;;;;;;;;;;;;;;-10.90;74.85;101763.59;5017443;28;19976;-73
2023/12/07 04:27:08;;;;;;;;;;;;;;;-11.05;75.23;101760.88;5020398;28;19929;-74
2023/12/07 04:29:35;;;;;;;;;;;;;;;-11.15;75.93;101767.59;5004344;28;20358;-72
2023/12/07 04:32:02;;;;;;;;;;;;;;;-11.23;76.15;101761.91;5021087;28;19976;-72
2023/12/07 04:34:28;;;;;;;;;;;;;;;-11.29;76.33;101766.56;5022761;28;20242;-72
2023/12/07 04:36:53;;;;;;;;;;;;;;;-11.31;76.46;101764.97;5023114;28;19933;-72
2023/12/07 04:39:19;;;;;;;;;;;;;;;-11.35;76.63;101769.56;5023404;28;19933;-72
2023/12/07 04:41:45;;;;;;;;;;;;;;;-11.37;77.25;101765.28;5022190;28;20303;-72
2023/12/07 04:44:12;;;;;;;;;;;;;;;-11.40;76.81;101775.09;5024606;28;20349;-71
2023/12/07 04:46:39;;;;;;;;;;;;;;;-11.43;77.15;101769.09;5023826;28;20226;-71
2023/12/07 04:49:05;;;;;;;;;;;;;;;-11.43;77.52;101769.97;5021674;28;20040;-72
2023/12/07 04:51:31;;;;;;;;;;;;;;;-11.46;77.18;101775.44;5021570;28;19933;-71
2023/12/07 04:53:57;;;;;;;;;;;;;;;-11.50;77.46;101780.94;5004408;28;20465;-72
2023/12/07 04:56:23;;;;;;;;;;;;;;;-11.50;77.79;101775.66;5007450;28;19929;-73
2023/12/07 04:58:49;;;;;;;;;;;;;;;-11.52;77.64;101780.19;5019621;28;19935;-72
2023/12/07 05:01:16;;;;;;;;;;;;;;;-11.53;77.91;101776.69;5023981;28;20059;-72
2023/12/07 05:03:42;;;;;;;;;;;;;;;-11.55;78.25;101775.91;5017591;28;19936;-72
2023/12/07 05:06:08;;;;;;;;;;;;;;;-11.60;78.01;101785.88;5005218;28;19929;-72
2023/12/07 05:08:34;;;;;;;;;;;;;;;-11.61;78.28;101790.28;5018899;28;19929;-72
2023/12/07 05:10:59;;;;;;;;;;;;;;;-11.64;78.76;101784.31;5024864;28;19936;-72
2023/12/07 05:13:25;;;;;;;;;;;;;;;-11.64;78.37;101798.38;5020612;28;19940;-72
2023/12/07 05:15:51;;;;;;;;;;;;;;;-11.65;78.63;101795.81;5022095;28;20711;-72
2023/12/07 05:18:19;;;;;;;;;;;;;;;-11.70;78.40;101796.06;5022866;28;19936;-72
2023/12/07 05:20:45;;;;;;;;;;;;;;;-11.72;78.59;101804.06;5019656;28;19929;-73
2023/12/07 05:23:11;;;;;;;;;;;;;;;-11.72;78.68;101808.47;5022714;28;19929;-74
2023/12/07 05:25:37;;;;;;;;;;;;;;;-11.71;78.74;101805.75;5024086;28;20036;-72
2023/12/07 05:28:03;;;;;;;;;;;;;;;-11.69;78.85;101811.81;5026078;28;19929;-72
2023/12/07 05:30:29;;;;;;;;;;;;;;;-11.68;78.64;101812.69;5015456;28;19929;-73
2023/12/07 05:32:55;;;;;;;;;;;;;;;-11.68;78.54;101815.31;5009334;28;20499;-73
2023/12/07 05:35:23;;;;;;;;;;;;;;;-11.69;78.55;101819.72;5011439;28;20794;-73
2023/12/07 05:37:50;;;;;;;;;;;;;;;-11.69;78.54;101819.72;5004930;28;20031;-73
2023/12/07 05:40:16;;;;;;;;;;;;;;;-11.65;78.33;101823.06;5006875;28;20024;-72
2023/12/07 05:42:43;;;;;;;;;;;;;;;-11.64;78.30;101824.78;5004404;28;20400;-73
2023/12/07 05:45:09;;;;;;;;;;;;;;;-11.62;78.29;101825.53;5009198;28;20274;-73
2023/12/07 05:47:36;;;;;;;;;;;;;;;-11.60;77.88;101830.75;5008366;28;20111;-73
2023/12/07 05:50:03;;;;;;;;;;;;;;;-11.61;77.81;101832.53;4993848;28;19937;-72
2023/12/07 05:52:31;;;;;;;;;;;;;;;-11.63;77.54;101833.53;4997282;28;20036;-73
2023/12/07 05:54:57;;;;;;;;;;;;;;;-11.65;77.64;101838.03;5021059;28;19936;-73
2023/12/07 05:57:23;;;;;;;;;;;;;;;-11.65;77.38;101838.03;5020450;28;19987;-73
2023/12/07 05:59:49;;;;;;;;;;;;;;;-11.72;77.35;101835.72;5005464;28;19936;-73
2023/12/07 06:02:15;;;;;;;;;;;;;;;-11.76;77.10;101841.25;5021260;28;19933;-73
2023/12/07 06:04:41;;;;;;;;;;;;;;;-11.74;77.32;101844.66;4999801;28;20389;-72
2023/12/07 06:07:07;;;;;;;;;;;;;;;-11.72;77.46;101841.00;5021698;28;19952;-73
2023/12/07 06:09:34;;;;;;;;;;;;;;;-11.72;76.96;101845.44;4988339;28;20344;-73
2023/12/07 06:12:00;;;;;;;;;;;;;;;-11.70;77.32;101844.44;5015830;28;19929;-73
2023/12/07 06:14:26;;;;;;;;;;;;;;;-11.66;77.27;101849.53;5023572;28;20396;-73
2023/12/07 06:16:52;;;;;;;;;;;;;;;-11.62;77.29;101853.75;5021900;28;19929;-72
2023/12/07 06:19:18;;;;;;;;;;;;;;;-11.57;76.78;101857.84;5019683;28;20469;-73
2023/12/07 06:21:46;;;;;;;;;;;;;;;-11.52;77.01;101854.97;5019501;28;19929;-73
2023/12/07 06:24:14;;;;;;;;;;;;;;;-11.44;76.81;101849.28;5016045;28;19929;-73
2023/12/07 06:26:41;;;;;;;;;;;;;;;-11.40;76.29;101854.31;5015387;28;20515;-73
2023/12/07 06:29:07;;;;;;;;;;;;;;;-11.35;76.24;101856.72;5022702;28;19929;-73
2023/12/07 06:31:34;;;;;;;;;;;;;;;-11.30;76.21;101862.59;5018420;28;19986;-73
2023/12/07 06:34:00;;;;;;;;;;;;;;;-11.27;75.71;101854.50;5013268;28;19983;-73
2023/12/07 06:36:26;;;;;;;;;;;;;;;-11.25;75.70;101867.66;5021848;28;19934;-73
2023/12/07 06:38:54;;;;;;;;;;;;;;;-11.20;75.85;101856.84;5024290;28;19966;-74
2023/12/07 06:41:20;;;;;;;;;;;;;;;-11.08;75.62;101856.19;5017464;28;19929;-73
2023/12/07 06:43:48;;;;;;;;;;;;;;;-11.04;75.73;101855.09;4989171;28;19929;-73
2023/12/07 06:46:16;;;;;;;;;;;;;;;-11.02;75.05;101858.50;5001860;28;20028;-72
2023/12/07 06:48:42;;;;;;;;;;;;;;;-11.00;75.53;101853.97;5004438;28;20333;-73
2023/12/07 06:51:08;;;;;;;;;;;;;;;-11.01;75.08;101854.03;5019575;28;19956;-72
2023/12/07 06:53:33;;;;;;;;;;;;;;;-11.03;74.64;101854.13;5021632;28;19929;-74
2023/12/07 06:55:59;;;;;;;;;;;;;;;-10.95;74.79;101858.13;5019908;28;20558;-74
2023/12/07 06:58:25;;;;;;;;;;;;;;;-10.89;74.58;101860.47;5022432;28;20195;-74
2023/12/07 07:00:53;;;;;;;;;;;;;;;-10.96;74.30;101857.31;5035752;28;19929;-73
2023/12/07 07:03:19;;;;;;;;;;;;;;;-10.91;74.84;101857.06;5021632;28;19929;-74
2023/12/07 07:05:45;;;;;;;;;;;;;;;-10.94;74.71;101851.91;5019903;28;19947;-73
2023/12/07 07:08:10;;;;;;;;;;;;;;;-11.05;74.18;101856.03;5024707;28;19948;-74
2023/12/07 07:10:36;;;;;;;;;;;;;;;-11.12;74.55;101857.28;5031153;28;20432;-73
2023/12/07 07:13:04;;;;;;;;;;;;;;;-11.11;74.50;101858.97;4991425;28;20400;-74
2023/12/07 07:15:30;;;;;;;;;;;;;;;-11.05;74.77;101860.44;5039102;28;20449;-74
2023/12/07 07:17:57;;;;;;;;;;;;;;;-11.06;74.55;101851.66;5020900;28;19987;-74
2023/12/07 07:20:23;;;;;;;;;;;;;;;-10.86;74.25;101861.13;5016903;28;19965;-74
2023/12/07 07:22:49;;;;;;;;;;;;;;;-10.83;73.39;101863.63;5020389;28;20438;-73
2023/12/07 07:25:16;;;;;;;;;;;;;;;-10.77;73.41;101851.88;5016337;28;19936;-74
2023/12/07 07:27:42;;;;;;;;;;;;;;;-10.72;73.13;101855.09;5020646;28;19929;-73
2023/12/07 07:30:08;;;;;;;;;;;;;;;-10.80;73.02;101853.81;5014636;28;19929;-74
2023/12/07 07:32:35;;;;;;;;;;;;;;;-10.91;73.29;101860.53;5033559;28;20636;-73
2023/12/07 07:35:03;;;;;;;;;;;;;;;-10.91;73.38;101867.63;5037840;28;19933;-73
2023/12/07 07:37:28;;;;;;;;;;;;;;;-10.92;73.79;101863.28;5022344;28;19988;-74
2023/12/07 07:39:54;;;;;;;;;;;;;;;-10.91;73.40;101865.81;5015494;28;20393;-74
2023/12/07 07:42:20;;;;;;;;;;;;;;;-10.91;73.28;101868.47;5036061;28;20401;-74
2023/12/07 07:44:46;;;;;;;;;;;;;;;-10.95;73.38;101872.22;5018093;28;19932;-73
2023/12/07 07:47:12;;;;;;;;;;;;;;;-11.02;73.46;101874.34;5018717;28;19937;-73
2023/12/07 07:49:39;;;;;;;;;;;;;;;-11.11;73.54;101873.06;5014891;28;19932;-73
2023/12/07 07:52:06;;;;;;;;;;;;;;;-11.12;73.77;101878.41;5019069;28;19939;-73
2023/12/07 07:54:32;;;;;;;;;;;;;;;-11.16;73.97;101879.50;5019508;28;19929;-73
2023/12/07 07:56:58;;;;;;;;;;;;;;;-11.14;74.33;101880.28;5020448;28;19991;-74
2023/12/07 07:59:24;;;;;;;;;;;;;;;-11.06;74.31;101879.88;5021294;28;20172;-74
2023/12/07 08:01:49;;;;;;;;;;;;;;;-10.99;73.90;101883.91;5020009;28;19940;-74
2023/12/07 08:04:16;;;;;;;;;;;;;;;-10.91;73.57;101880.84;5019673;28;19929;-73
2023/12/07 08:06:43;;;;;;;;;;;;;;;-10.87;73.63;101882.38;5018170;28;19999;-73
2023/12/07 08:09:10;;;;;;;;;;;;;;;-10.78;73.43;101881.84;5021923;28;20490;-73
2023/12/07 08:11:36;;;;;;;;;;;;;;;-10.72;73.23;101884.19;5024443;28;19929;-73
2023/12/07 08:14:02;;;;;;;;;;;;;;;-10.71;72.92;101893.81;5018868;28;19935;-73
2023/12/07 08:16:28;;;;;;;;;;;;;;;-10.69;72.63;101889.31;5031887;28;20290;-73
2023/12/07 08:18:53;;;;;;;;;;;;;;;-10.68;72.71;101890.16;5009987;28;19929;-73
2023/12/07 08:21:20;;;;;;;;;;;;;;;-10.62;72.72;101883.66;5004576;28;20037;-73
2023/12/07 08:23:46;;;;;;;;;;;;;;;-10.54;72.77;101884.94;5020363;28;19935;-73
2023/12/07 08:26:14;;;;;;;;;;;;;;;-10.49;72.73;101891.78;5019913;28;19929;-73
2023/12/07 08:28:40;;;;;;;;;;;;;;;-10.48;72.39;101883.75;5017651;28;19933;-73
2023/12/07 08:31:06;;;;;;;;;;;;;;;-10.43;72.33;101897.59;5021992;28;19929;-73
2023/12/07 08:33:34;;;;;;;;;;;;;;;-10.39;71.98;101887.63;5019285;28;19975;-73
2023/12/07 08:36:00;;;;;;;;;;;;;;;-10.26;71.72;101883.34;5023204;28;19933;-73
2023/12/07 08:38:26;;;;;;;;;;;;;;;-9.93;71.46;101883.28;5022006;28;19929;-74
2023/12/07 08:40:52;;;;;;;;;;;;;;;-9.50;70.50;101882.56;5019453;28;19928;-73
2023/12/07 08:43:22;;;;;;;;;;;;;;;-9.49;69.42;101871.84;5013819;28;19975;-73
2023/12/07 08:45:48;;;;;;;;;;;;;;;-9.44;68.74;101869.81;5016219;28;19930;-73
2023/12/07 08:48:14;;;;;;;;;;;;;;;-9.34;69.12;101872.72;5015790;28;20462;-73
2023/12/07 08:50:40;;;;;;;;;;;;;;;-9.19;68.43;101875.41;5023742;28;19991;-73
2023/12/07 08:53:06;;;;;;;;;;;;;;;-9.05;67.76;101870.09;5024533;28;20600;-73
2023/12/07 08:55:32;;;;;;;;;;;;;;;-8.66;66.62;101866.81;5025273;28;20081;-74
2023/12/07 08:58:00;;;;;;;;;;;;;;;-8.64;65.16;101876.38;5024224;28;19929;-73
2023/12/07 09:00:27;;;;;;;;;;;;;;;-8.60;65.26;101877.88;5036316;28;20031;-73
2023/12/07 09:02:53;;;;;;;;;;;;;;;-8.40;64.60;101865.97;5024273;28;20040;-73
2023/12/07 09:05:19;;;;;;;;;;;;;;;-8.64;64.53;101875.50;5023283;28;19929;-74
2023/12/07 09:07:45;;;;;;;;;;;;;;;-9.08;65.06;101853.50;5024688;28;19929;-74
2023/12/07 09:10:11;;;;;;;;;;;;;;;-9.31;66.09;101872.53;5024751;28;19940;-73
2023/12/07 09:12:38;;;;;;;;;;;;;;;-9.44;66.60;101871.59;5025939;28;19929;-74
2023/12/07 09:15:04;;;;;;;;;;;;;;;-9.50;67.20;101874.63;5024842;28;19972;-74
2023/12/07 09:17:31;;;;;;;;;;;;;;;-9.54;67.59;101873.94;5026584;28;19929;-73
2023/12/07 09:19:58;;;;;;;;;;;;;;;-9.49;67.42;101871.00;5022781;28;19936;-73
2023/12/07 09:22:25;;;;;;;;;;;;;;;-9.44;67.43;101875.09;5017314;28;19936;-74
2023/12/07 09:24:50;;;;;;;;;;;;;;;-9.37;67.42;101872.91;5024096;28;19999;-73
2023/12/07 09:27:17;;;;;;;;;;;;;;;-9.24;67.39;101869.50;5007131;28;19936;-73
2023/12/07 09:29:43;;;;;;;;;;;;;;;-9.09;67.36;101854.47;4988288;28;20020;-73
2023/12/07 09:32:09;;;;;;;;;;;;;;;-8.86;67.26;101858.31;5026705;28;20036;-74
2023/12/07 09:34:36;;;;;;;;;;;;;;;-8.80;66.66;101863.22;5024478;28;19929;-73
2023/12/07 09:37:06;;;;;;;;;;;;;;;-8.87;66.49;101860.13;5024629;28;19928;-74
2023/12/07 09:39:32;;;;;;;;;;;;;;;-9.05;66.29;101856.84;5020801;28;19952;-74
2023/12/07 09:41:58;;;;;;;;;;;;;;;-9.19;67.04;101848.88;5020816;28;19930;-73
2023/12/07 09:44:24;;;;;;;;;;;;;;;-9.09;67.40;101855.31;5025120;28;19965;-73
2023/12/07 09:46:50;;;;;;;;;;;;;;;-8.90;66.80;101867.41;5025516;28;20320;-73
2023/12/07 09:49:17;;;;;;;;;;;;;;;-8.76;66.54;101864.72;4989244;28;19929;-74
2023/12/07 09:51:44;;;;;;;;;;;;;;;-8.77;66.46;101856.88;5008748;28;19999;-73
2023/12/07 09:54:10;;;;;;;;;;;;;;;-8.61;66.37;101864.69;5005165;28;20231;-74
2023/12/07 09:56:36;;;;;;;;;;;;;;;-8.46;66.35;101861.03;5007099;28;19982;-74
2023/12/07 09:59:02;;;;;;;;;;;;;;;-8.45;66.20;101853.94;5023247;28;19929;-75
2023/12/07 10:01:30;;;;;;;;;;;;;;;-8.63;65.87;101862.16;5022522;28;19929;-74
2023/12/07 10:04:10;;;;;;;;;;;;;;;-8.86;66.18;101853.84;5004739;28;20202;-74
2023/12/07 10:06:44;;;;;;;;;;;;;;;-8.64;67.11;101864.91;5024525;28;19928;-74
2023/12/07 10:09:12;;;;;;;;;;;;;;;-8.42;65.75;101861.69;5003474;28;19936;-74
2023/12/07 10:11:38;;;;;;;;;;;;;;;-8.51;65.87;101862.31;5020419;28;20297;-73
2023/12/07 10:14:05;;;;;;;;;;;;;;;-8.53;65.83;101862.41;5019975;28;19935;-74
2023/12/07 10:16:35;;;;;;;;;;;;;;;-8.59;65.56;101871.63;5025065;28;19933;-75
2023/12/07 10:19:13;;;;;;;;;;;;;;;-8.34;66.22;101862.06;5016421;28;19934;-74
2023/12/07 10:21:39;;;;;;;;;;;;;;;-7.91;65.03;101863.66;5013930;28;20187;-74
2023/12/07 10:24:05;;;;;;;;;;;;;;;-7.33;64.57;101865.09;5002264;28;20400;-74
2023/12/07 10:26:33;;;;;;;;;;;;;;;-6.79;62.40;101860.44;5015811;28;19940;-74
2023/12/07 10:29:01;;;;;;;;;;;;;;;-6.46;61.12;101872.31;5013689;28;20494;-74
2023/12/07 10:31:28;;;;;;;;;;;;;;;-6.14;60.59;101869.91;5015450;28;20031;-74
2023/12/07 10:33:54;;;;;;;;;;;;;;;-6.27;60.41;101872.63;5016068;28;20390;-74
2023/12/07 10:36:21;;;;;;;;;;;;;;;-6.84;60.62;101866.13;5029548;28;20678;-74
2023/12/07 10:38:50;;;;;;;;;;;;;;;-7.33;61.43;101865.97;5022135;28;19929;-74
2023/12/07 10:41:18;;;;;;;;;;;;;;;-7.94;62.37;101868.31;5020232;28;19929;-74
2023/12/07 10:43:46;;;;;;;;;;;;;;;-8.43;63.55;101858.19;5018421;28;19929;-74
2023/12/07 10:46:16;;;;;;;;;;;;;;;-8.75;64.78;101869.09;5027622;28;19932;-75
2023/12/07 10:48:44;;;;;;;;;;;;;;;-8.87;65.69;101865.41;5006303;28;19928;-74
2023/12/07 10:51:12;;;;;;;;;;;;;;;-9.07;66.28;101864.00;5021844;28;19929;-75
2023/12/07 10:53:43;;;;;;;;;;;;;;;-9.20;67.04;101868.41;5022581;28;19936;-74
2023/12/07 10:56:11;;;;;;;;;;;;;;;-9.26;67.42;101877.56;5023296;28;19929;-75
2023/12/07 10:58:37;;;;;;;;;;;;;;;-9.23;67.25;101866.78;4985421;28;19929;-74
2023/12/07 11:01:07;;;;;;;;;;;;;;;-9.37;67.13;101870.25;5018196;28;19929;-74
2023/12/07 11:03:33;;;;;;;;;;;;;;;-9.44;67.86;101879.53;5017997;28;20157;-75
2023/12/07 11:05:58;;;;;;;;;;;;;;;-9.57;68.09;101874.97;5016232;28;19936;-75
2023/12/07 11:08:28;;;;;;;;;;;;;;;-9.52;68.77;101876.47;5022239;28;19975;-74
2023/12/07 11:11:00;;;;;;;;;;;;;;;-9.61;69.07;101878.75;5018142;28;19929;-74
2023/12/07 11:13:29;;;;;;;;;;;;;;;-9.65;69.10;101874.59;5034802;28;19929;-74
2023/12/07 11:15:55;;;;;;;;;;;;;;;-9.58;69.08;101872.44;5000717;28;19929;-74
2023/12/07 11:18:24;;;;;;;;;;;;;;;-9.35;68.84;101878.13;5021864;28;20230;-74
2023/12/07 11:20:51;;;;;;;;;;;;;;;-9.31;68.84;101880.50;5022481;28;19933;-74
2023/12/07 11:23:20;;;;;;;;;;;;;;;-9.42;68.48;101886.44;4985768;28;19929;-74
2023/12/07 11:25:46;;;;;;;;;;;;;;;-9.52;68.78;101879.13;5021134;28;20307;-74
2023/12/07 11:28:13;;;;;;;;;;;;;;;-9.57;69.18;101877.63;5022245;28;20031;-74
2023/12/07 11:30:41;;;;;;;;;;;;;;;-9.62;69.42;101884.13;5019594;28;19940;-74
2023/12/07 11:33:07;;;;;;;;;;;;;;;-9.65;69.67;101876.38;5019786;28;20355;-74
2023/12/07 11:35:54;;;;;;;;;;;;;;;-9.70;69.69;101874.00;5006012;28;19929;-75
2023/12/07 11:38:20;;;;;;;;;;;;;;;-9.73;69.56;101874.19;5018419;28;19933;-75
2023/12/07 11:40:46;;;;;;;;;;;;;;;-9.78;69.56;101884.19;5020895;28;19999;-74
2023/12/07 11:43:16;;;;;;;;;;;;;;;-9.83;69.37;101882.69;5021456;28;19933;-74
2023/12/07 11:45:47;;;;;;;;;;;;;;;-9.83;69.23;101884.47;4993272;28;20032;-74
2023/12/07 11:48:14;;;;;;;;;;;;;;;-9.95;69.36;101886.03;5016659;28;20414;-74
2023/12/07 11:50:55;;;;;;;;;;;;;;;-10.02;69.93;101885.53;5003259;28;19936;-74
2023/12/07 11:53:26;;;;;;;;;;;;;;;-10.03;69.75;101877.69;5015771;28;20355;-74
2023/12/07 11:55:52;;;;;;;;;;;;;;;-10.11;70.11;101880.78;5020420;28;20400;-74
2023/12/07 11:58:18;;;;;;;;;;;;;;;-10.08;69.94;101891.16;5018421;28;20019;-74
2023/12/07 12:00:47;;;;;;;;;;;;;;;-9.99;69.82;101892.44;5019515;28;20397;-74
2023/12/07 12:03:13;;;;;;;;;;;;;;;-9.93;69.30;101885.94;5019095;28;20018;-74
2023/12/07 12:05:40;;;;;;;;;;;;;;;-9.92;69.34;101883.22;5017733;28;20002;-74
2023/12/07 12:08:06;;;;;;;;;;;;;;;-9.94;69.15;101876.28;5015843;28;19929;-73
2023/12/07 12:10:34;;;;;;;;;;;;;;;-9.95;69.17;101885.19;5019704;28;20361;-73
2023/12/07 12:13:01;;;;;;;;;;;;;;;-9.97;69.45;101885.28;5023929;28;19929;-74
2023/12/07 12:15:28;;;;;;;;;;;;;;;-9.99;69.15;101897.72;5022586;28;19929;-74
2023/12/07 12:17:55;;;;;;;;;;;;;;;-10.08;69.40;101883.22;5020322;28;19957;-74
2023/12/07 12:20:21;;;;;;;;;;;;;;;-10.28;69.55;101879.94;5016282;28;19941;-73
2023/12/07 12:22:47;;;;;;;;;;;;;;;-10.26;69.95;101885.16;5033262;28;20457;-74
2023/12/07 12:25:13;;;;;;;;;;;;;;;-10.26;70.14;101879.88;5017445;28;19929;-73
2023/12/07 12:27:41;;;;;;;;;;;;;;;-10.34;70.38;101868.84;5021945;28;19929;-74